createdAt,value
2022-09-20T00:01:09.831Z,96260.25
2022-09-20T00:06:15.818Z,96266.50
2022-09-20T00:11:20.759Z,96263.75
2022-09-20T00:16:26.723Z,96266.78
2022-09-20T00:21:31.426Z,96263.41
2022-09-20T00:26:33.496Z,96258.94
2022-09-20T00:31:36.902Z,96256.63
2022-09-20T00:36:38.798Z,96249.03
2022-09-20T00:41:40.899Z,96252.94
2022-09-20T00:46:45.398Z,96257.72
2022-09-20T00:51:56.099Z,96244.38
2022-09-20T00:56:58.258Z,96245.81
2022-09-20T01:02:16.875Z,96232.19
2022-09-20T01:07:22.505Z,96230.59
2022-09-20T01:12:29.652Z,96233.41
2022-09-20T01:17:34.910Z,96232.69
2022-09-20T01:23:05.462Z,96235.88
2022-09-20T01:28:07.778Z,96240.13
2022-09-20T01:33:18.580Z,96240.94
2022-09-20T01:38:57.883Z,96237.94
2022-09-20T01:44:17.138Z,96233.50
2022-09-20T01:49:40.646Z,96232.84
2022-09-20T01:55:05.375Z,96225.25
2022-09-20T02:00:19.677Z,96222.16
2022-09-20T02:05:58.483Z,96222.59
2022-09-20T02:11:19.867Z,96224.22
2022-09-20T02:16:34.031Z,96236.47
2022-09-20T02:21:51.369Z,96231.34
2022-09-20T02:27:18.226Z,96227.28
2022-09-20T02:32:41.499Z,96225.19
2022-09-20T02:38:00.258Z,96229.19
2022-09-20T02:43:18.056Z,96229.91
2022-09-20T02:48:29.997Z,96236.00
2022-09-20T02:53:51.853Z,96240.00
2022-09-20T02:59:23.139Z,96240.81
2022-09-20T03:05:03.519Z,96253.75
2022-09-20T03:10:30.094Z,96254.38
2022-09-20T03:15:45.546Z,96252.84
2022-09-20T03:21:32.601Z,96240.94
2022-09-20T03:27:17.727Z,96250.81
2022-09-20T03:32:29.870Z,96253.91
2022-09-20T03:38:10.827Z,96251.66
2022-09-20T03:43:31.112Z,96255.34
2022-09-20T03:49:07.029Z,96259.56
2022-09-20T03:54:30.826Z,96253.34
2022-09-20T03:59:56.927Z,96253.72
2022-09-20T04:05:00.871Z,96254.03
2022-09-20T04:10:33.848Z,96263.38
2022-09-20T04:15:51.196Z,96261.84
2022-09-20T04:21:06.267Z,96256.19
2022-09-20T04:26:09.133Z,96259.72
2022-09-20T04:31:44.215Z,96259.06
2022-09-20T04:37:02.920Z,96263.88
2022-09-20T04:42:38.402Z,96262.97
2022-09-20T04:48:03.730Z,96265.28
2022-09-20T04:53:50.559Z,96267.56
2022-09-20T04:59:10.948Z,96273.44
2022-09-20T05:04:31.472Z,96280.38
2022-09-20T05:10:05.012Z,96283.84
2022-09-20T05:15:11.855Z,96284.34
2022-09-20T05:20:45.071Z,96291.63
2022-09-20T05:25:56.040Z,96287.91
2022-09-20T05:31:15.739Z,96293.63
2022-09-20T05:36:34.566Z,96297.59
2022-09-20T05:41:45.549Z,96304.19
2022-09-20T05:46:53.332Z,96307.69
2022-09-20T05:52:04.605Z,96310.78
2022-09-20T05:57:21.579Z,96318.06
2022-09-20T06:02:43.268Z,96311.34
2022-09-20T06:26:45.551Z,96323.94
2022-09-20T06:31:47.640Z,96331.19
